Observations

83.8 °F / 28.8 °C
NNE at 13 MPH
77%
75.9°F / 24.4 °C
29.85" (1010 mb)
10 mile(s)
partly cloudy
2022.09.30 0700 UTC

Observations

Surface


Raw METARs

2022/09/30 07:00
PKWA 300700Z AUTO 02011KT 10SM SCT023 SCT029 SCT037 29/24 A2985 RMK AO2 T02880244

Translated METAR

Kwajalein, Bucholz AAF, Kwajalein KMR ATOL Airport, Marshall Islands (PKWA) 08-43N 167-44E 2M
Sep 30, 2022 - 03:00 AM EDT / 2022.09.30 0700 UTC
Wind: from the NNE (020 degrees) at 13 MPH (11 KT):0
Visibility: 10 mile(s):0
Sky conditions: partly cloudy
Temperature: 83.8 F (28.8 C)
Dew Point: 75.9 F (24.4 C)
Relative Humidity: 77%
Pressure (altimeter): 29.85 in. Hg (1010 hPa)
ob: PKWA 300700Z AUTO 02011KT 10SM SCT023 SCT029 SCT037 29/24 A2985 RMK AO2 T02880244
cycle: 7



Upper Air


Latest Skew-T

Skew T Diagram

Latest Data File